createdAt,value
2019-02-28T00:01:59.014Z,22.93
2019-02-28T00:04:05.466Z,22.93
2019-02-28T00:06:12.681Z,21.70
2019-02-28T00:08:17.877Z,21.77
2019-02-28T00:10:23.134Z,21.20
2019-02-28T00:12:27.913Z,22.27
2019-02-28T00:14:33.354Z,22.77
2019-02-28T00:16:38.492Z,23.53
2019-02-28T00:18:43.258Z,22.70
2019-02-28T00:20:48.546Z,22.20
2019-02-28T00:22:53.296Z,22.17
2019-02-28T00:25:01.206Z,22.17
2019-02-28T00:27:04.923Z,23.20
2019-02-28T00:29:09.657Z,23.50
2019-02-28T00:31:15.365Z,22.77
2019-02-28T00:33:20.299Z,22.47
2019-02-28T00:35:25.036Z,22.83
2019-02-28T00:37:33.257Z,23.73
2019-02-28T00:39:38.381Z,21.30
2019-02-28T00:41:44.490Z,24.37
2019-02-28T00:43:49.603Z,25.93
2019-02-28T00:45:54.330Z,25.03
2019-02-28T00:47:59.116Z,23.90
2019-02-28T00:50:04.202Z,22.83
2019-02-28T00:52:08.949Z,24.70
2019-02-28T00:54:13.799Z,23.97
2019-02-28T00:56:18.569Z,23.10
2019-02-28T00:58:28.370Z,24.80
2019-02-28T01:00:29.964Z,25.27
2019-02-28T01:02:34.676Z,25.80
2019-02-28T01:04:39.452Z,24.40
2019-02-28T01:06:44.381Z,26.20
2019-02-28T01:09:10.866Z,25.57
2019-02-28T01:11:16.104Z,24.60
2019-02-28T01:13:21.965Z,26.67
2019-02-28T01:15:27.506Z,25.90
2019-02-28T01:17:32.626Z,25.10
2019-02-28T01:19:41.181Z,25.10
2019-02-28T01:21:45.326Z,26.30
2019-02-28T01:23:50.525Z,26.00
2019-02-28T01:25:55.634Z,27.37
2019-02-28T01:28:00.416Z,26.43
2019-02-28T01:30:06.641Z,25.90
2019-02-28T01:32:15.486Z,25.63
2019-02-28T01:34:18.792Z,26.90
2019-02-28T01:36:23.990Z,25.60
2019-02-28T01:38:28.775Z,25.23
2019-02-28T01:40:35.217Z,24.50
2019-02-28T01:42:40.457Z,25.57
2019-02-28T01:44:45.296Z,26.03
2019-02-28T01:46:50.648Z,25.23
2019-02-28T01:48:55.415Z,26.87
2019-02-28T01:51:01.600Z,26.20
2019-02-28T01:53:06.596Z,27.57
2019-02-28T01:55:12.256Z,27.20
2019-02-28T01:57:17.739Z,25.90
2019-02-28T01:59:23.022Z,27.43
2019-02-28T02:01:28.484Z,27.10
2019-02-28T02:03:34.725Z,26.60
2019-02-28T02:05:55.451Z,26.30
2019-02-28T02:08:09.715Z,26.50
2019-02-28T02:10:54.897Z,25.33
2019-02-28T02:13:11.599Z,27.63
2019-02-28T02:15:21.487Z,29.03
2019-02-28T02:17:27.044Z,25.50
2019-02-28T02:19:31.891Z,25.23
2019-02-28T02:21:36.688Z,27.47
2019-02-28T02:23:41.587Z,26.97
2019-02-28T02:25:46.391Z,28.27
2019-02-28T02:27:53.338Z,28.00
2019-02-28T02:29:57.689Z,27.77
2019-02-28T02:32:02.861Z,25.20
2019-02-28T02:34:08.206Z,28.77
2019-02-28T02:36:16.356Z,26.47
2019-02-28T02:38:19.612Z,28.33
2019-02-28T02:40:24.386Z,27.83
2019-02-28T02:42:29.448Z,27.77
2019-02-28T02:44:34.228Z,27.53
2019-02-28T02:46:39.054Z,28.37
2019-02-28T02:48:43.901Z,27.90
2019-02-28T02:50:48.757Z,29.50
2019-02-28T02:52:53.717Z,29.63
2019-02-28T02:54:58.501Z,27.47
2019-02-28T02:57:03.671Z,27.87
2019-02-28T02:59:08.556Z,28.10
2019-02-28T03:01:13.755Z,29.80
2019-02-28T03:03:18.563Z,29.30
2019-02-28T03:05:23.367Z,29.20
2019-02-28T03:07:28.385Z,31.50
2019-02-28T03:09:33.631Z,29.00
2019-02-28T03:11:38.725Z,30.17
2019-02-28T03:13:44.282Z,29.37
2019-02-28T03:15:49.294Z,30.83
2019-02-28T03:17:54.290Z,29.30
2019-02-28T03:19:59.279Z,28.40
2019-02-28T03:22:04.419Z,27.43
2019-02-28T03:24:14.554Z,31.77
2019-02-28T03:26:15.964Z,28.30
2019-02-28T03:28:20.909Z,30.57
2019-02-28T03:30:31.093Z,29.80
2019-02-28T03:32:39.620Z,31.93
2019-02-28T03:34:39.309Z,30.40
2019-02-28T03:36:51.037Z,29.90
2019-02-28T03:38:50.957Z,33.33
2019-02-28T03:40:56.437Z,32.33
2019-02-28T03:43:20.470Z,31.47
2019-02-28T03:45:29.939Z,31.93
2019-02-28T03:47:32.044Z,32.97
2019-02-28T03:49:37.216Z,33.97
2019-02-28T03:51:41.982Z,33.50
2019-02-28T03:53:46.804Z,32.47
2019-02-28T03:55:52.315Z,30.43
2019-02-28T03:58:04.382Z,34.50
2019-02-28T04:00:03.604Z,33.83
2019-02-28T04:02:08.573Z,34.43
2019-02-28T04:04:13.910Z,35.67
2019-02-28T04:06:18.728Z,34.13
2019-02-28T04:08:29.401Z,37.03
2019-02-28T04:10:30.393Z,35.17
2019-02-28T04:12:35.204Z,35.60
2019-02-28T04:14:40.873Z,35.63
2019-02-28T04:16:52.706Z,37.90
2019-02-28T04:18:52.264Z,37.10
2019-02-28T04:20:57.347Z,38.70
2019-02-28T04:23:02.506Z,38.00
2019-02-28T04:25:07.423Z,39.43
2019-02-28T04:27:12.787Z,39.50
2019-02-28T04:29:18.024Z,37.43
2019-02-28T04:31:23.650Z,42.10
2019-02-28T04:33:28.664Z,39.40
2019-02-28T04:35:33.726Z,42.03
2019-02-28T04:37:44.889Z,40.23
2019-02-28T04:39:45.841Z,43.13
2019-02-28T04:41:50.755Z,43.10
2019-02-28T04:43:55.562Z,44.43
2019-02-28T04:46:00.548Z,43.50
2019-02-28T04:48:05.671Z,43.10
2019-02-28T04:50:10.796Z,42.20
2019-02-28T04:52:15.967Z,44.00
2019-02-28T04:54:20.691Z,41.47
2019-02-28T04:56:25.530Z,43.40
2019-02-28T04:58:33.486Z,41.33
2019-02-28T05:00:38.883Z,42.97
2019-02-28T05:02:44.145Z,41.73
2019-02-28T05:04:49.032Z,41.17
2019-02-28T05:06:55.305Z,43.80
2019-02-28T05:09:00.400Z,42.70
2019-02-28T05:11:05.267Z,41.17
2019-02-28T05:13:11.449Z,42.80
2019-02-28T05:15:16.993Z,43.53
2019-02-28T05:17:22.292Z,44.90
2019-02-28T05:19:28.167Z,44.50
2019-02-28T05:21:53.543Z,42.43
2019-02-28T05:23:58.904Z,41.43
2019-02-28T05:26:03.655Z,43.20
2019-02-28T05:28:08.425Z,44.43
2019-02-28T05:30:17.901Z,43.37
2019-02-28T05:32:23.797Z,44.20
2019-02-28T05:34:28.975Z,46.13
2019-02-28T05:36:34.567Z,44.27
2019-02-28T05:38:40.535Z,45.83
2019-02-28T05:40:45.320Z,44.43
2019-02-28T05:42:50.383Z,44.40
2019-02-28T05:44:55.095Z,46.17
2019-02-28T05:47:00.171Z,47.10
2019-02-28T05:49:08.797Z,48.27
2019-02-28T05:51:12.241Z,45.00
2019-02-28T05:53:17.060Z,48.30
2019-02-28T05:55:25.683Z,46.57
2019-02-28T05:57:28.294Z,48.07
2019-02-28T05:59:33.083Z,46.27
2019-02-28T06:01:37.873Z,48.07
2019-02-28T06:03:42.745Z,46.97
2019-02-28T06:05:47.936Z,47.80
2019-02-28T06:07:53.766Z,45.83
2019-02-28T06:10:01.003Z,49.60
2019-02-28T06:12:06.611Z,47.60
2019-02-28T06:14:12.335Z,47.07
2019-02-28T06:16:17.860Z,46.53
2019-02-28T06:18:22.909Z,48.47
2019-02-28T06:20:27.943Z,47.00
2019-02-28T06:22:36.188Z,47.27
2019-02-28T06:24:40.032Z,45.10
2019-02-28T06:26:48.056Z,47.57
2019-02-28T06:28:52.889Z,48.57
2019-02-28T06:31:00.252Z,46.40
2019-02-28T06:33:08.511Z,45.40
2019-02-28T06:35:16.470Z,47.40
2019-02-28T06:37:20.073Z,48.50
2019-02-28T06:39:26.836Z,44.13
2019-02-28T06:41:32.234Z,45.77
2019-02-28T06:43:36.999Z,44.67
2019-02-28T06:45:41.807Z,45.30
2019-02-28T06:47:49.701Z,43.27
2019-02-28T06:49:53.366Z,42.67
2019-02-28T06:51:58.633Z,44.10
2019-02-28T06:54:04.373Z,44.30
2019-02-28T06:56:10.901Z,42.43
2019-02-28T06:58:26.581Z,43.40
2019-02-28T07:01:00.925Z,44.07
2019-02-28T07:03:06.066Z,43.03
2019-02-28T07:05:11.229Z,42.37
2019-02-28T07:07:16.258Z,40.60
2019-02-28T07:09:21.776Z,40.67
2019-02-28T07:11:27.305Z,41.43
2019-02-28T07:13:40.191Z,38.80
2019-02-28T07:15:59.080Z,38.73
2019-02-28T07:18:02.835Z,38.50
2019-02-28T07:20:13.397Z,39.37
2019-02-28T07:28:30.357Z,37.73
2019-02-28T07:30:37.822Z,38.50
2019-02-28T07:32:42.614Z,38.60
2019-02-28T07:34:47.631Z,39.27
2019-02-28T07:36:52.762Z,39.73
2019-02-28T07:38:57.886Z,38.90
2019-02-28T07:41:03.478Z,38.80
2019-02-28T07:43:12.009Z,36.30
2019-02-28T07:45:14.827Z,38.90
2019-02-28T07:47:19.581Z,37.03
2019-02-28T07:49:25.932Z,38.47
2019-02-28T07:51:30.958Z,38.33
2019-02-28T07:53:35.742Z,37.47
2019-02-28T07:55:40.842Z,39.57
2019-02-28T07:57:51.175Z,38.40
2019-02-28T07:59:52.300Z,40.00
2019-02-28T08:01:59.939Z,38.40
2019-02-28T08:04:04.640Z,40.10
2019-02-28T08:06:09.738Z,39.23
2019-02-28T08:08:14.522Z,37.90
2019-02-28T08:10:20.036Z,39.30
2019-02-28T08:12:27.436Z,39.40
2019-02-28T08:14:31.857Z,39.73
2019-02-28T08:16:37.018Z,39.60
2019-02-28T08:18:41.864Z,39.90
2019-02-28T08:20:46.698Z,38.50
2019-02-28T08:22:52.116Z,41.83
2019-02-28T08:24:56.945Z,40.17
2019-02-28T08:27:02.682Z,38.80
2019-02-28T08:29:09.182Z,38.90
2019-02-28T08:31:13.965Z,37.33
2019-02-28T08:33:18.751Z,38.23
2019-02-28T08:35:23.952Z,45.33
2019-02-28T08:37:28.719Z,39.90
2019-02-28T08:39:33.510Z,38.20
2019-02-28T08:41:38.328Z,38.98
2019-02-28T08:43:44.627Z,53.10
2019-02-28T08:45:50.339Z,41.93
2019-02-28T08:47:56.766Z,38.50
2019-02-28T08:50:01.778Z,37.13
2019-02-28T08:52:06.724Z,39.93
2019-02-28T08:54:11.576Z,45.50
2019-02-28T08:56:16.740Z,42.50
2019-02-28T08:58:21.900Z,48.57
2019-02-28T09:00:31.278Z,40.30
2019-02-28T09:02:33.767Z,39.43
2019-02-28T09:04:41.513Z,41.77
2019-02-28T09:06:45.644Z,39.83
2019-02-28T09:08:50.812Z,46.67
2019-02-28T09:10:55.657Z,42.33
2019-02-28T09:13:00.460Z,41.00
2019-02-28T09:15:05.972Z,39.13
2019-02-28T09:17:10.791Z,39.77
2019-02-28T09:19:15.614Z,38.23
2019-02-28T09:21:20.395Z,40.30
2019-02-28T09:23:25.213Z,40.40
2019-02-28T09:25:30.149Z,40.17
2019-02-28T09:27:35.268Z,39.80
2019-02-28T09:29:41.409Z,41.47
2019-02-28T09:31:46.204Z,41.07
2019-02-28T09:34:36.803Z,45.20
2019-02-28T09:36:44.154Z,42.80
2019-02-28T09:38:56.873Z,40.10
2019-02-28T09:40:55.639Z,41.60
2019-02-28T09:43:00.773Z,39.07
2019-02-28T09:45:07.642Z,40.33
2019-02-28T09:48:18.193Z,37.90
2019-02-28T10:03:56.448Z,43.37
2019-02-28T10:06:28.146Z,31.80
2019-02-28T10:11:41.075Z,35.53
2019-02-28T10:13:46.126Z,35.40
2019-02-28T10:15:50.865Z,34.73
2019-02-28T10:17:55.649Z,51.87
2019-02-28T10:20:26.277Z,56.40
2019-02-28T10:22:57.321Z,62.43
2019-02-28T10:25:43.328Z,43.40
2019-02-28T10:28:02.634Z,39.37
2019-02-28T10:30:41.855Z,34.67
2019-02-28T10:32:47.847Z,36.37
2019-02-28T10:34:52.701Z,34.83
2019-02-28T10:36:57.711Z,35.93
2019-02-28T10:39:02.821Z,36.77
2019-02-28T10:41:07.770Z,36.00
2019-02-28T10:43:15.617Z,40.03
2019-02-28T10:45:20.028Z,42.23
2019-02-28T10:47:28.143Z,40.07
2019-02-28T10:49:31.301Z,54.00
2019-02-28T10:51:36.524Z,53.00
2019-02-28T10:53:41.684Z,69.77
2019-02-28T10:55:47.055Z,48.77
2019-02-28T10:57:52.606Z,43.97
2019-02-28T10:59:58.172Z,41.17
2019-02-28T11:02:04.624Z,42.77
2019-02-28T11:04:09.748Z,42.70
2019-02-28T11:06:14.625Z,43.70
2019-02-28T11:08:19.464Z,42.53
2019-02-28T11:10:32.107Z,44.83
2019-02-28T11:12:35.784Z,42.17
2019-02-28T11:14:40.500Z,43.73
2019-02-28T11:16:45.403Z,44.83
2019-02-28T11:18:50.140Z,77.80
2019-02-28T11:20:58.063Z,121.07
2019-02-28T11:23:01.370Z,75.67
2019-02-28T11:25:07.956Z,52.10
2019-02-28T11:27:13.212Z,47.33
2019-02-28T11:29:18.022Z,45.53
2019-02-28T11:32:29.989Z,47.57
2019-02-28T11:35:51.037Z,46.67
2019-02-28T11:38:21.701Z,46.13
2019-02-28T11:40:28.984Z,48.73
2019-02-28T11:42:34.293Z,46.60
2019-02-28T11:44:39.273Z,45.57
2019-02-28T11:46:44.714Z,46.63
2019-02-28T11:48:51.058Z,46.10
2019-02-28T11:50:58.227Z,46.03
2019-02-28T11:53:05.878Z,46.60
2019-02-28T11:55:23.087Z,47.67
2019-02-28T11:57:28.056Z,48.73
2019-02-28T11:59:33.330Z,45.50
2019-02-28T12:01:38.806Z,47.70
2019-02-28T12:03:43.939Z,58.70
2019-02-28T12:05:50.637Z,67.10
2019-02-28T12:07:56.159Z,60.90
2019-02-28T12:10:00.904Z,46.03
2019-02-28T12:12:07.250Z,43.40
2019-02-28T12:14:35.762Z,42.97
2019-02-28T12:16:40.467Z,41.53
2019-02-28T12:18:45.255Z,39.10
2019-02-28T12:20:50.480Z,37.40
2019-02-28T12:22:55.439Z,37.33
2019-02-28T12:25:00.278Z,37.27
2019-02-28T12:27:05.052Z,41.50
2019-02-28T12:29:12.878Z,59.57
2019-02-28T12:31:16.499Z,48.70
2019-02-28T12:33:23.381Z,46.77
2019-02-28T12:35:28.668Z,37.50
2019-02-28T12:37:36.636Z,44.10
2019-02-28T12:39:41.479Z,41.03
2019-02-28T12:41:46.670Z,39.07
2019-02-28T12:43:51.374Z,43.53
2019-02-28T12:45:56.779Z,40.87
2019-02-28T12:48:02.555Z,37.70
2019-02-28T12:50:08.206Z,40.83
2019-02-28T12:52:14.587Z,39.60
2019-02-28T12:54:22.424Z,41.63
2019-02-28T12:56:27.483Z,43.30
2019-02-28T12:58:38.837Z,41.47
2019-02-28T13:00:39.021Z,43.67
2019-02-28T13:02:44.478Z,43.80
2019-02-28T13:04:49.295Z,45.53
2019-02-28T13:06:55.611Z,43.87
2019-02-28T13:09:00.412Z,43.20
2019-02-28T13:11:05.322Z,46.37
2019-02-28T13:13:10.478Z,47.33
2019-02-28T13:15:15.992Z,46.60
2019-02-28T13:17:28.271Z,49.43
2019-02-28T13:19:53.281Z,55.80
2019-02-28T13:21:58.646Z,88.43
2019-02-28T13:24:06.067Z,72.20
2019-02-28T13:26:09.891Z,48.83
2019-02-28T13:28:18.136Z,57.13
2019-02-28T13:30:25.111Z,57.13
2019-02-28T13:32:33.770Z,53.47
2019-02-28T13:34:40.582Z,76.97
2019-02-28T13:36:46.498Z,65.97
2019-02-28T13:38:54.668Z,72.60
2019-02-28T13:40:57.875Z,74.00
2019-02-28T13:43:04.937Z,57.07
2019-02-28T13:45:14.738Z,48.67
2019-02-28T13:47:19.990Z,53.30
2019-02-28T13:49:33.228Z,51.20
2019-02-28T13:51:42.006Z,42.33
2019-02-28T13:53:45.635Z,43.20
2019-02-28T13:55:52.655Z,42.83
2019-02-28T13:58:00.467Z,40.30
2019-02-28T14:00:08.997Z,40.57
2019-02-28T14:02:13.983Z,38.60
2019-02-28T14:04:24.820Z,41.43
2019-02-28T14:06:25.223Z,37.90
2019-02-28T14:08:30.406Z,34.20
2019-02-28T14:10:35.140Z,37.00
2019-02-28T14:12:40.332Z,35.07
2019-02-28T14:14:45.107Z,32.10
2019-02-28T14:16:50.192Z,32.30
2019-02-28T14:18:55.072Z,34.97
2019-02-28T14:21:03.110Z,32.07
2019-02-28T14:23:06.522Z,30.43
2019-02-28T14:25:11.380Z,28.10
2019-02-28T14:27:16.183Z,27.77
2019-02-28T14:29:20.922Z,28.63
2019-02-28T14:31:25.674Z,26.80
2019-02-28T14:33:33.167Z,26.00
2019-02-28T14:35:38.913Z,24.97
2019-02-28T14:37:43.892Z,23.50
2019-02-28T14:39:48.683Z,25.10
2019-02-28T14:41:53.472Z,23.20
2019-02-28T14:43:58.292Z,23.37
2019-02-28T14:46:03.007Z,22.30
2019-02-28T14:48:08.985Z,20.63
2019-02-28T14:50:15.552Z,24.10
2019-02-28T14:52:21.409Z,24.90
2019-02-28T14:54:26.544Z,23.90
2019-02-28T14:56:31.557Z,22.10
2019-02-28T14:58:36.767Z,24.83
2019-02-28T15:00:42.422Z,35.27
2019-02-28T15:02:50.690Z,40.73
2019-02-28T15:04:56.316Z,23.40
2019-02-28T15:07:03.019Z,22.30
2019-02-28T15:09:16.144Z,22.53
2019-02-28T15:11:20.917Z,20.70
2019-02-28T15:13:25.932Z,24.67
2019-02-28T15:15:30.720Z,23.70
2019-02-28T15:17:38.699Z,23.57
2019-02-28T15:19:44.173Z,21.60
2019-02-28T15:21:49.390Z,19.37
2019-02-28T15:23:54.288Z,24.77
2019-02-28T15:25:59.505Z,22.40
2019-02-28T15:28:10.588Z,27.33
2019-02-28T15:30:24.127Z,22.17
2019-02-28T15:32:37.975Z,21.67
2019-02-28T15:37:57.075Z,22.90
2019-02-28T15:40:21.562Z,24.10
2019-02-28T15:42:29.096Z,22.37
2019-02-28T15:47:19.401Z,24.10
2019-02-28T15:50:02.936Z,26.10
2019-02-28T15:55:12.992Z,24.50
2019-02-28T15:57:31.308Z,14.83
2019-02-28T16:02:29.123Z,22.53
2019-02-28T16:04:36.347Z,16.17
2019-02-28T16:06:44.924Z,15.07
2019-02-28T16:14:42.342Z,10.87
2019-02-28T16:17:26.683Z,10.90
2019-02-28T16:19:48.575Z,10.00
2019-02-28T16:22:08.162Z,44.90
2019-02-28T16:24:24.510Z,19.60
2019-02-28T16:26:47.730Z,9.47
2019-02-28T16:29:20.614Z,9.27
2019-02-28T16:31:21.718Z,7.20
2019-02-28T16:33:27.464Z,7.50
2019-02-28T16:35:34.549Z,8.00
2019-02-28T16:37:40.261Z,7.70
2019-02-28T16:39:44.994Z,7.77
2019-02-28T16:41:49.759Z,5.73
2019-02-28T16:43:55.531Z,5.77
2019-02-28T16:46:04.752Z,7.60
2019-02-28T16:48:09.545Z,10.00
2019-02-28T16:50:15.344Z,6.60
2019-02-28T16:52:21.021Z,5.70
2019-02-28T16:54:27.772Z,6.40
2019-02-28T16:56:32.367Z,8.30
2019-02-28T16:58:37.328Z,8.53
2019-02-28T17:00:42.450Z,9.80
2019-02-28T17:02:49.062Z,7.77
2019-02-28T17:04:53.811Z,6.03
2019-02-28T17:06:58.656Z,6.70
2019-02-28T17:09:13.962Z,8.10
2019-02-28T17:11:19.394Z,7.83
2019-02-28T17:13:46.108Z,6.53
2019-02-28T17:16:01.507Z,5.43
2019-02-28T17:18:08.124Z,8.57
2019-02-28T17:20:13.190Z,6.40
2019-02-28T17:22:17.960Z,8.17
2019-02-28T17:24:23.130Z,6.40
2019-02-28T17:27:06.124Z,6.47
2019-02-28T17:29:15.998Z,7.20
2019-02-28T17:31:41.145Z,13.10
2019-02-28T17:33:46.921Z,6.30
2019-02-28T17:35:52.755Z,7.00
2019-02-28T17:38:00.173Z,7.33
2019-02-28T17:40:04.694Z,9.00
2019-02-28T17:42:14.838Z,9.80
2019-02-28T17:45:24.336Z,8.70
2019-02-28T17:48:17.742Z,16.80
2019-02-28T17:50:46.133Z,8.97
2019-02-28T17:53:27.752Z,7.90
2019-02-28T17:56:03.922Z,7.70
2019-02-28T17:58:46.402Z,7.47
2019-02-28T18:44:14.411Z,6.00
2019-02-28T18:46:29.558Z,5.40
2019-02-28T18:48:35.819Z,6.50
2019-02-28T18:51:11.096Z,5.93
2019-02-28T18:53:46.347Z,5.67
2019-02-28T18:55:56.933Z,6.13
2019-02-28T19:01:08.377Z,6.30
2019-02-28T19:04:22.667Z,6.37
2019-02-28T19:06:57.528Z,6.13
2019-02-28T19:09:07.084Z,6.00
2019-02-28T19:11:16.468Z,6.50
2019-02-28T19:13:26.490Z,6.30
2019-02-28T19:15:31.709Z,6.70
2019-02-28T19:20:48.958Z,10.97
2019-02-28T19:23:42.211Z,6.00
2019-02-28T19:25:47.568Z,8.50
2019-02-28T19:27:52.873Z,11.60
2019-02-28T19:29:58.043Z,6.40
2019-02-28T19:32:09.291Z,6.63
2019-02-28T19:46:47.322Z,9.83
2019-02-28T19:54:26.726Z,9.90
2019-02-28T19:56:47.513Z,9.00
2019-02-28T19:59:42.066Z,9.50
2019-02-28T20:18:36.923Z,11.70
2019-02-28T20:20:41.295Z,10.63
2019-02-28T20:29:03.918Z,11.10
2019-02-28T20:31:12.426Z,11.33
2019-02-28T20:41:52.522Z,11.40
2019-02-28T20:44:19.370Z,11.00
2019-02-28T20:46:25.592Z,10.50
2019-02-28T20:48:42.318Z,11.03
2019-02-28T20:50:53.981Z,13.53
2019-02-28T20:53:02.404Z,11.30
2019-02-28T20:55:08.725Z,12.57
2019-02-28T20:57:14.153Z,11.43
2019-02-28T20:59:22.966Z,12.17
2019-02-28T21:01:28.668Z,12.80
2019-02-28T21:03:33.600Z,12.93
2019-02-28T21:05:38.855Z,13.90
2019-02-28T21:07:44.239Z,13.13
2019-02-28T21:09:49.675Z,14.00
2019-02-28T21:11:55.849Z,13.60
2019-02-28T21:14:00.893Z,13.40
2019-02-28T21:16:05.745Z,14.63
2019-02-28T21:18:13.619Z,14.17
2019-02-28T21:20:18.802Z,14.20
2019-02-28T21:22:24.117Z,14.17
2019-02-28T21:24:28.877Z,15.07
2019-02-28T21:26:34.237Z,14.87
2019-02-28T21:28:39.667Z,15.60
2019-02-28T21:30:44.831Z,15.00
2019-02-28T21:32:53.383Z,16.47
2019-02-28T21:34:58.757Z,15.50
2019-02-28T21:37:03.609Z,16.13
2019-02-28T21:39:16.011Z,15.60
2019-02-28T21:41:21.042Z,15.27
2019-02-28T21:43:29.065Z,16.63
2019-02-28T21:45:34.731Z,15.20
2019-02-28T21:47:41.563Z,15.80
2019-02-28T21:49:47.546Z,16.50
2019-02-28T21:51:52.589Z,16.33
2019-02-28T21:53:57.371Z,16.13
2019-02-28T21:56:02.191Z,16.00
2019-02-28T21:58:17.670Z,17.20
2019-02-28T22:00:35.248Z,17.13
2019-02-28T22:02:40.825Z,16.07
2019-02-28T22:04:46.482Z,15.37
2019-02-28T22:07:13.130Z,16.67
2019-02-28T22:09:18.137Z,14.90
2019-02-28T22:11:24.262Z,14.37
2019-02-28T22:13:30.415Z,16.57
2019-02-28T22:15:35.457Z,15.50
2019-02-28T22:17:41.180Z,15.93
2019-02-28T22:19:46.075Z,16.17
2019-02-28T22:21:51.453Z,15.37
2019-02-28T22:23:56.637Z,15.90
2019-02-28T22:26:04.627Z,14.17
2019-02-28T22:28:09.444Z,14.77
2019-02-28T22:30:38.928Z,15.10
2019-02-28T22:32:52.280Z,14.10
2019-02-28T22:42:21.743Z,13.57
2019-02-28T22:44:21.087Z,13.40
2019-02-28T22:46:31.603Z,12.93
2019-02-28T22:48:36.775Z,12.90
2019-02-28T22:50:41.916Z,13.30
2019-02-28T22:52:47.456Z,12.80
2019-02-28T22:54:55.049Z,13.33
2019-02-28T22:57:01.765Z,13.13
2019-02-28T22:59:07.056Z,12.43
2019-02-28T23:01:14.909Z,14.10
2019-02-28T23:03:20.114Z,12.73
2019-02-28T23:05:33.982Z,13.50
2019-02-28T23:07:57.479Z,13.13
2019-02-28T23:10:18.095Z,13.30
2019-02-28T23:12:24.116Z,12.23
2019-02-28T23:14:30.412Z,12.73
2019-02-28T23:16:36.368Z,12.20
2019-02-28T23:18:41.573Z,14.40
2019-02-28T23:20:55.994Z,13.10
2019-02-28T23:23:33.416Z,14.50
2019-02-28T23:25:45.369Z,15.40
2019-02-28T23:31:17.582Z,15.30
2019-02-28T23:33:29.830Z,15.70
2019-02-28T23:35:43.207Z,16.50
2019-02-28T23:37:55.820Z,15.97
2019-02-28T23:40:07.194Z,16.50
2019-02-28T23:42:15.532Z,15.30
2019-02-28T23:44:25.115Z,16.57
2019-02-28T23:46:36.527Z,14.43
2019-02-28T23:48:46.546Z,16.03
2019-02-28T23:51:14.640Z,14.93
2019-02-28T23:53:23.400Z,14.27
2019-02-28T23:55:29.346Z,15.50
2019-02-28T23:57:35.912Z,15.23
2019-02-28T23:59:45.480Z,13.53
